Time;durP1;ratioP1;P1;durP2;ratioP2;P2;SDS_P1;SDS_P2;PMS_P1;PMS_P2;Temp;Humidity;BMP_temperature;BMP_pressure;BME280_temperature;BME280_humidity;BME280_pressure;Samples;Min_cycle;Max_cycle;Signal;HPM_P1;HPM_P2
2024/02/02 00:01:17;;;;;;;5.22;1.60;;;11.90;84.00;;;;;;4941184;29;20044;-79
2024/02/02 00:03:43;;;;;;;5.05;1.95;;;11.90;84.00;;;;;;4940092;28;20027;-79
2024/02/02 00:06:08;;;;;;;5.72;1.83;;;10.80;83.40;;;;;;4939455;29;20028;-79
2024/02/02 00:08:34;;;;;;;4.57;1.70;;;11.90;84.00;;;;;;4923351;29;20257;-79
2024/02/02 00:11:00;;;;;;;5.00;1.75;;;11.90;84.00;;;;;;4924097;29;20008;-79
2024/02/02 00:13:26;;;;;;;5.13;1.95;;;12.00;84.10;;;;;;4939751;29;20020;-78
2024/02/02 00:15:55;;;;;;;5.53;1.70;;;11.90;84.00;;;;;;4940221;29;20036;-78
2024/02/02 00:18:20;;;;;;;5.15;1.75;;;12.00;84.00;;;;;;4939425;28;20023;-78
2024/02/02 00:20:46;;;;;;;5.20;2.03;;;11.90;84.00;;;;;;4923781;29;20043;-79
2024/02/02 00:23:11;;;;;;;4.25;1.70;;;11.90;84.00;;;;;;4939614;29;20028;-79
2024/02/02 00:25:37;;;;;;;5.32;1.73;;;12.00;84.10;;;;;;4939598;28;20012;-79
2024/02/02 00:28:03;;;;;;;6.07;1.90;;;12.00;84.10;;;;;;4940176;29;20040;-79
2024/02/02 00:30:37;;;;;;;5.88;1.83;;;11.90;84.00;;;;;;4923731;29;20076;-79
2024/02/02 00:33:02;;;;;;;6.00;2.17;;;12.00;84.10;;;;;;4923313;29;20087;-79
2024/02/02 00:35:28;;;;;;;5.20;1.80;;;11.90;84.00;;;;;;4940077;29;20012;-79
2024/02/02 00:37:54;;;;;;;4.82;1.88;;;11.80;84.00;;;;;;4940119;29;20040;-79
2024/02/02 00:40:20;;;;;;;4.90;1.70;;;12.00;84.10;;;;;;4940007;29;20012;-80
2024/02/02 00:42:45;;;;;;;5.93;2.00;;;12.00;84.10;;;;;;4939416;29;20032;-80
2024/02/02 00:45:11;;;;;;;4.80;1.52;;;11.90;84.00;;;;;;4939805;29;20020;-78
2024/02/02 00:47:37;;;;;;;5.18;1.70;;;11.90;84.00;;;;;;4939485;29;20019;-79
2024/02/02 00:50:05;;;;;;;5.28;1.95;;;11.90;84.00;;;;;;4939359;29;20035;-79
2024/02/02 00:52:34;;;;;;;5.65;1.77;;;11.80;84.00;;;;;;4938783;28;20415;-79
2024/02/02 00:55:00;;;;;;;4.80;1.65;;;12.00;84.10;;;;;;4937550;29;20035;-79
2024/02/02 00:57:27;;;;;;;5.63;1.80;;;11.90;84.60;;;;;;4939281;29;20012;-79
2024/02/02 00:59:54;;;;;;;4.47;1.92;;;12.00;84.10;;;;;;4939401;29;20025;-79
2024/02/02 01:02:20;;;;;;;5.15;1.98;;;11.90;84.10;;;;;;4923043;29;20064;-78
2024/02/02 01:04:46;;;;;;;6.63;1.85;;;12.50;84.30;;;;;;4922671;29;20012;-79
2024/02/02 01:07:15;;;;;;;5.97;1.92;;;11.80;84.00;;;;;;4937852;29;20047;-78
2024/02/02 01:09:42;;;;;;;4.15;1.67;;;11.80;84.00;;;;;;4922661;29;20028;-79
2024/02/02 01:12:08;;;;;;;6.32;2.15;;;12.00;84.10;;;;;;4922139;29;20097;-79
2024/02/02 01:14:35;;;;;;;4.88;1.90;;;11.90;84.00;;;;;;4938782;28;20071;-80
2024/02/02 01:17:01;;;;;;;4.35;1.77;;;11.70;83.90;;;;;;4922958;29;20016;-81
2024/02/02 01:19:29;;;;;;;5.25;1.83;;;12.50;84.40;;;;;;4941559;29;20023;-79
2024/02/02 01:21:54;;;;;;;5.13;1.90;;;11.70;83.90;;;;;;4927316;29;20035;-79
2024/02/02 01:24:20;;;;;;;4.78;1.92;;;12.00;84.10;;;;;;4926598;29;20091;-79
2024/02/02 01:26:46;;;;;;;4.15;1.80;;;12.50;84.30;;;;;;4942523;28;20043;-78
2024/02/02 01:29:11;;;;;;;5.10;1.60;;;12.00;84.10;;;;;;4943617;29;20039;-79
2024/02/02 01:31:37;;;;;;;6.57;2.22;;;11.90;84.10;;;;;;4942356;28;20016;-80
2024/02/02 01:34:03;;;;;;;4.85;1.77;;;11.90;84.10;;;;;;4942834;29;20248;-78
2024/02/02 01:36:28;;;;;;;5.70;1.92;;;11.80;84.00;;;;;;4926566;29;20055;-79
2024/02/02 01:38:54;;;;;;;5.05;1.85;;;11.90;84.10;;;;;;4943108;29;20048;-79
2024/02/02 01:41:20;;;;;;;7.72;2.20;;;11.90;84.10;;;;;;4926578;29;20036;-78
2024/02/02 01:43:46;;;;;;;5.88;1.98;;;11.90;84.10;;;;;;4926349;29;20032;-79
2024/02/02 01:46:15;;;;;;;4.75;1.83;;;11.90;84.10;;;;;;4942763;29;20068;-79
2024/02/02 01:48:41;;;;;;;4.97;1.98;;;12.20;84.20;;;;;;4942874;29;20076;-79
2024/02/02 01:51:07;;;;;;;4.40;1.80;;;11.80;84.00;;;;;;4925460;29;20024;-79
2024/02/02 01:53:33;;;;;;;5.65;2.00;;;11.90;84.10;;;;;;4941927;28;20039;-80
2024/02/02 01:55:59;;;;;;;5.70;2.28;;;11.90;84.10;;;;;;4942137;29;20009;-79
2024/02/02 01:58:25;;;;;;;5.05;1.63;;;11.90;84.10;;;;;;4925288;29;20024;-79
2024/02/02 02:00:51;;;;;;;5.90;2.25;;;12.00;84.10;;;;;;4925987;29;20012;-80
2024/02/02 02:03:17;;;;;;;4.63;1.83;;;11.80;84.00;;;;;;4925930;29;20044;-79
2024/02/02 02:05:43;;;;;;;5.10;2.05;;;11.80;84.00;;;;;;4925961;29;20040;-81
2024/02/02 02:08:09;;;;;;;5.43;2.03;;;11.90;84.10;;;;;;4942473;29;20019;-79
2024/02/02 02:10:35;;;;;;;7.10;2.08;;;12.00;84.20;;;;;;4942619;29;20056;-79
2024/02/02 02:13:02;;;;;;;5.95;1.85;;;11.80;84.00;;;;;;4925737;29;20016;-79
2024/02/02 02:15:28;;;;;;;5.28;1.98;;;11.80;84.00;;;;;;4925842;29;20079;-79
2024/02/02 02:17:54;;;;;;;6.10;2.40;;;11.80;84.00;;;;;;4909971;29;20063;-79
2024/02/02 02:20:25;;;;;;;7.22;2.22;;;11.80;84.10;;;;;;4925621;29;20238;-79
2024/02/02 02:22:52;;;;;;;5.13;1.88;;;11.80;84.10;;;;;;4925273;29;20024;-80
2024/02/02 02:25:17;;;;;;;5.38;2.08;;;12.00;84.20;;;;;;4925939;29;20020;-79
2024/02/02 02:27:44;;;;;;;6.57;2.13;;;11.90;84.10;;;;;;4942023;29;20040;-79
2024/02/02 02:30:11;;;;;;;6.32;2.33;;;11.80;84.00;;;;;;4941579;29;20031;-79
2024/02/02 02:32:37;;;;;;;6.00;2.15;;;11.80;84.00;;;;;;4909913;29;20012;-79
2024/02/02 02:35:04;;;;;;;6.10;2.17;;;11.80;84.00;;;;;;4909821;29;20036;-79
2024/02/02 02:37:30;;;;;;;8.43;2.45;;;11.80;84.10;;;;;;4925391;29;20016;-80
2024/02/02 02:39:56;;;;;;;6.30;2.00;;;11.90;84.10;;;;;;4941802;29;20024;-80
2024/02/02 02:42:22;;;;;;;5.38;1.98;;;12.00;84.10;;;;;;4925204;29;20036;-80
2024/02/02 02:44:48;;;;;;;5.85;2.00;;;11.80;84.10;;;;;;4925108;29;20048;-80
2024/02/02 02:47:14;;;;;;;4.82;2.00;;;11.70;84.00;;;;;;4941062;29;20036;-79
2024/02/02 02:49:39;;;;;;;6.90;2.30;;;11.80;84.00;;;;;;4924991;29;20020;-80
2024/02/02 02:52:05;;;;;;;5.43;2.03;;;11.90;84.10;;;;;;4941701;29;20034;-79
2024/02/02 02:54:32;;;;;;;7.20;2.45;;;11.80;84.10;;;;;;4941037;28;20079;-81
2024/02/02 02:56:58;;;;;;;6.07;2.10;;;11.80;84.10;;;;;;4925845;29;20079;-78
2024/02/02 02:59:24;;;;;;;5.78;2.00;;;11.80;84.10;;;;;;4924955;29;20032;-78
2024/02/02 03:01:49;;;;;;;5.55;2.35;;;11.80;84.10;;;;;;4924830;29;20026;-80
2024/02/02 03:04:15;;;;;;;5.60;2.30;;;11.80;84.10;;;;;;4924778;29;20092;-79
2024/02/02 03:06:41;;;;;;;6.47;2.00;;;11.80;84.10;;;;;;4940948;28;20063;-79
2024/02/02 03:09:07;;;;;;;5.90;2.55;;;11.90;84.20;;;;;;4924824;29;20064;-80
2024/02/02 03:11:35;;;;;;;6.30;2.40;;;11.90;84.20;;;;;;4925345;29;20542;-79
2024/02/02 03:14:01;;;;;;;6.00;2.47;;;11.80;84.10;;;;;;4925393;29;20016;-80
2024/02/02 03:16:27;;;;;;;5.80;2.10;;;11.80;84.10;;;;;;4941990;29;20065;-80
2024/02/02 03:18:53;;;;;;;6.03;2.22;;;11.90;84.20;;;;;;4924848;29;20024;-79
2024/02/02 03:21:19;;;;;;;4.95;2.15;;;12.00;84.20;;;;;;4941513;29;20020;-80
2024/02/02 03:23:44;;;;;;;5.15;2.05;;;12.00;84.20;;;;;;4907135;29;20040;-79
2024/02/02 03:26:11;;;;;;;5.43;2.10;;;12.10;84.30;;;;;;4936619;29;20012;-80
2024/02/02 03:28:37;;;;;;;8.57;2.83;;;11.50;84.00;;;;;;4924609;29;20019;-80
2024/02/02 03:31:04;;;;;;;5.80;2.28;;;11.80;84.10;;;;;;4925156;29;20028;-80
2024/02/02 03:33:30;;;;;;;6.47;2.20;;;11.80;84.10;;;;;;4940910;29;20075;-79
2024/02/02 03:35:56;;;;;;;5.55;2.30;;;12.50;84.50;;;;;;4941084;29;20008;-80
2024/02/02 03:38:22;;;;;;;6.63;2.53;;;11.80;84.10;;;;;;4924574;29;20059;-80
2024/02/02 03:40:48;;;;;;;6.07;2.65;;;11.80;84.10;;;;;;4924467;29;20072;-80
2024/02/02 03:43:14;;;;;;;6.45;2.70;;;11.80;84.10;;;;;;4939845;29;20112;-81
2024/02/02 03:45:39;;;;;;;6.32;2.70;;;11.80;84.10;;;;;;4924625;29;20013;-80
2024/02/02 03:48:06;;;;;;;6.68;2.42;;;11.90;84.20;;;;;;4924592;29;20084;-80
2024/02/02 03:50:31;;;;;;;5.88;2.30;;;11.80;84.10;;;;;;4940684;29;20009;-80
2024/02/02 03:53:00;;;;;;;6.88;2.45;;;11.70;84.00;;;;;;4939910;29;20101;-80
2024/02/02 03:55:26;;;;;;;7.03;2.50;;;11.90;84.20;;;;;;4924955;29;20015;-80
2024/02/02 03:57:52;;;;;;;5.50;2.33;;;11.60;84.10;;;;;;4939444;29;20036;-80
2024/02/02 04:00:18;;;;;;;6.57;2.42;;;12.10;84.30;;;;;;4924072;29;20034;-79
2024/02/02 04:02:47;;;;;;;5.55;2.40;;;11.80;84.20;;;;;;4924306;29;20024;-80
2024/02/02 04:05:15;;;;;;;6.28;2.60;;;11.80;84.20;;;;;;4925123;29;20024;-79
2024/02/02 04:07:42;;;;;;;7.10;2.50;;;11.80;84.20;;;;;;4940105;29;20031;-80
2024/02/02 04:10:09;;;;;;;8.07;2.47;;;11.90;84.30;;;;;;4941050;29;20036;-79
2024/02/02 04:12:35;;;;;;;4.97;2.13;;;11.80;84.20;;;;;;4923770;29;20040;-79
2024/02/02 04:15:01;;;;;;;5.63;2.35;;;11.90;84.30;;;;;;4923820;29;20012;-79
2024/02/02 04:17:26;;;;;;;5.65;2.85;;;12.10;84.40;;;;;;4923880;29;20071;-80
2024/02/02 04:19:52;;;;;;;5.75;2.55;;;11.70;84.10;;;;;;4924213;29;20032;-80
2024/02/02 04:22:18;;;;;;;4.68;2.30;;;11.80;84.20;;;;;;4939507;29;20016;-80
2024/02/02 04:24:44;;;;;;;6.15;2.53;;;11.90;84.20;;;;;;4940452;29;20075;-80
2024/02/02 04:27:10;;;;;;;5.32;2.22;;;11.70;84.10;;;;;;4923683;29;20043;-79
2024/02/02 04:29:36;;;;;;;6.15;2.20;;;11.70;84.10;;;;;;4939476;29;20016;-80
2024/02/02 04:32:02;;;;;;;5.22;2.33;;;11.80;84.10;;;;;;4923417;29;20019;-79
2024/02/02 04:34:28;;;;;;;5.82;2.63;;;11.70;84.10;;;;;;4940336;29;20017;-79
2024/02/02 04:36:53;;;;;;;5.53;2.33;;;11.90;84.20;;;;;;4939853;29;20019;-79
2024/02/02 04:39:19;;;;;;;6.93;2.45;;;11.70;84.10;;;;;;4940068;29;20028;-78
2024/02/02 04:41:45;;;;;;;5.68;2.35;;;11.50;84.00;;;;;;4939012;29;20020;-80
2024/02/02 04:44:11;;;;;;;5.50;2.40;;;11.90;84.20;;;;;;4939928;29;20052;-80
2024/02/02 04:46:36;;;;;;;5.25;2.35;;;11.80;84.20;;;;;;4923547;29;20008;-79
2024/02/02 04:49:02;;;;;;;6.55;2.60;;;11.80;84.10;;;;;;4923363;29;20024;-79
2024/02/02 04:51:27;;;;;;;6.13;2.20;;;11.80;84.20;;;;;;4923092;29;20020;-79
2024/02/02 04:53:53;;;;;;;6.40;2.58;;;11.90;84.20;;;;;;4938118;29;20043;-79
2024/02/02 04:56:18;;;;;;;5.60;2.35;;;12.00;84.30;;;;;;4922272;29;20012;-79
2024/02/02 04:58:44;;;;;;;6.07;2.50;;;11.80;84.20;;;;;;4938482;29;20008;-80
2024/02/02 05:01:09;;;;;;;6.05;2.25;;;11.80;84.10;;;;;;4922192;29;20012;-79
2024/02/02 05:03:36;;;;;;;5.45;2.75;;;11.80;84.10;;;;;;4922451;29;20028;-79
2024/02/02 05:06:02;;;;;;;5.82;2.42;;;11.80;84.10;;;;;;4938965;29;20016;-79
2024/02/02 05:08:27;;;;;;;5.97;2.47;;;11.60;83.90;;;;;;4922945;29;20016;-80
2024/02/02 05:10:53;;;;;;;5.53;2.45;;;11.70;83.90;;;;;;4939301;29;20039;-81
2024/02/02 05:13:18;;;;;;;6.22;2.70;;;11.70;84.00;;;;;;4920466;29;20032;-79
2024/02/02 05:15:47;;;;;;;6.03;2.63;;;11.80;83.90;;;;;;4919145;29;20079;-81
2024/02/02 05:18:14;;;;;;;6.43;2.40;;;11.70;83.80;;;;;;4974973;23;20043;-79
2024/02/02 05:20:40;;;;;;;6.72;2.55;;;11.70;83.70;;;;;;4957489;28;20019;-80
2024/02/02 05:23:05;;;;;;;8.68;2.90;;;11.90;84.00;;;;;;4953047;28;20043;-79
2024/02/02 05:25:31;;;;;;;6.70;3.05;;;11.70;83.90;;;;;;4931131;28;20028;-79
2024/02/02 05:27:56;;;;;;;6.90;2.90;;;11.80;83.80;;;;;;4953084;28;20032;-79
2024/02/02 05:30:22;;;;;;;7.75;2.72;;;11.80;83.80;;;;;;4937520;28;20027;-79
2024/02/02 05:32:47;;;;;;;5.68;2.88;;;11.80;83.70;;;;;;4936700;28;20017;-79
2024/02/02 05:35:13;;;;;;;6.97;2.83;;;11.80;83.70;;;;;;4936512;28;20039;-80
2024/02/02 05:37:39;;;;;;;6.72;2.90;;;11.70;83.60;;;;;;4950147;28;20016;-80
2024/02/02 05:40:05;;;;;;;6.05;2.80;;;11.80;83.70;;;;;;4937839;28;20095;-79
2024/02/02 05:42:30;;;;;;;5.97;2.67;;;11.70;83.80;;;;;;4937873;28;20088;-80
2024/02/02 05:44:56;;;;;;;7.03;2.95;;;11.80;83.80;;;;;;4937385;28;20016;-80
2024/02/02 05:47:22;;;;;;;5.97;2.65;;;11.80;83.90;;;;;;4938189;28;20043;-80
2024/02/02 05:49:50;;;;;;;7.32;2.83;;;11.80;84.60;;;;;;4937765;28;20012;-81
2024/02/02 05:52:36;;;;;;;5.90;2.63;;;11.70;84.00;;;;;;4934778;28;20068;-79
2024/02/02 05:55:01;;;;;;;7.63;3.00;;;11.80;84.10;;;;;;4932052;28;20024;-80
2024/02/02 06:25:56;;;;;;;7.90;2.92;;;11.70;83.40;;;;;;5362486;23;20056;-82
2024/02/02 07:04:38;;;;;;;6.20;2.90;;;11.70;83.90;;;;;;5074391;23;20030;-83
2024/02/02 07:07:05;;;;;;;7.32;3.17;;;11.80;84.10;;;;;;4983455;28;20042;-83
2024/02/02 07:26:06;;;;;;;6.25;2.85;;;11.70;83.90;;;;;;5882605;23;20047;-79
2024/02/02 07:51:53;;;;;;;7.00;3.38;;;11.70;83.90;;;;;;5291798;23;20041;-81
2024/02/02 07:54:20;;;;;;;9.25;3.28;;;11.80;84.00;;;;;;5499948;23;20047;-79
2024/02/02 07:56:53;;;;;;;9.85;3.63;;;11.80;84.00;;;;;;4983348;28;20074;-83
2024/02/02 08:19:44;;;;;;;5.63;2.60;;;11.70;83.90;;;;;;5794565;23;20083;-81
2024/02/02 08:22:12;;;;;;;6.28;2.88;;;11.80;84.00;;;;;;4971308;23;20353;-81
2024/02/02 08:27:21;;;;;;;8.38;2.90;;;11.70;83.90;;;;;;5078897;23;20058;-82
2024/02/02 09:06:44;;;;;;;6.85;2.63;;;11.70;83.90;;;;;;5465929;23;20031;-82
2024/02/02 09:09:17;;;;;;;7.00;3.08;;;11.70;83.90;;;;;;4979924;28;20026;-82
2024/02/02 09:11:51;;;;;;;5.78;2.70;;;12.20;84.10;;;;;;4960890;28;20020;-82
2024/02/02 14:02:41;;;;;;;6.35;3.10;;;11.80;84.00;;;;;;4960400;29;20039;-80
2024/02/02 17:05:00;;;;;;;25.80;6.93;;;11.60;84.10;;;;;;1922129;23;20332;-79
2024/02/02 17:07:28;;;;;;;23.55;6.95;;;11.70;84.20;;;;;;4960758;28;20043;-81
2024/02/02 17:09:59;;;;;;;25.58;6.93;;;11.80;84.40;;;;;;4979248;28;20064;-81
2024/02/02 17:12:29;;;;;;;28.63;6.50;;;12.40;84.80;;;;;;4979623;28;20023;-79
2024/02/02 17:14:56;;;;;;;22.55;6.63;;;11.60;84.30;;;;;;4979126;28;20020;-81
2024/02/02 17:17:23;;;;;;;27.30;7.05;;;11.70;84.40;;;;;;4979639;28;20092;-82
2024/02/02 17:25:29;;;;;;;28.27;6.57;;;11.70;84.50;;;;;;5879414;23;20027;-80
2024/02/02 17:28:06;;;;;;;27.95;7.15;;;11.60;84.40;;;;;;4979747;28;20012;-82
2024/02/02 17:30:43;;;;;;;40.03;8.25;;;11.60;84.50;;;;;;4979086;28;20048;-82
2024/02/02 17:33:10;;;;;;;35.05;7.63;;;11.60;84.50;;;;;;4977143;28;20019;-82
2024/02/02 17:35:39;;;;;;;35.13;7.00;;;11.70;84.60;;;;;;4997684;28;20083;-82
2024/02/02 17:38:13;;;;;;;31.25;7.30;;;11.50;84.60;;;;;;4982660;28;20026;-81
2024/02/02 17:40:46;;;;;;;32.75;7.15;;;11.70;84.70;;;;;;4999409;28;20030;-82
2024/02/02 17:43:28;;;;;;;31.60;6.93;;;11.60;84.60;;;;;;4996971;28;20046;-81
2024/02/02 17:45:57;;;;;;;30.33;7.10;;;11.70;84.60;;;;;;4982476;28;20011;-82
2024/02/02 17:48:28;;;;;;;29.92;7.47;;;11.50;84.60;;;;;;4982885;28;20011;-82
2024/02/02 17:50:55;;;;;;;32.20;7.20;;;11.60;84.70;;;;;;4967012;28;20022;-81
2024/02/02 17:53:22;;;;;;;33.72;6.72;;;11.80;84.80;;;;;;4998685;28;20042;-81
2024/02/02 17:55:51;;;;;;;33.50;7.35;;;11.60;84.60;;;;;;4998888;28;20015;-82
2024/02/02 17:58:20;;;;;;;26.75;6.90;;;11.50;84.60;;;;;;4998840;28;20078;-82
2024/02/02 18:00:46;;;;;;;23.67;6.40;;;11.80;84.80;;;;;;4999231;28;20007;-81
2024/02/02 18:03:13;;;;;;;26.25;6.38;;;11.70;84.70;;;;;;4985894;28;20026;-81
2024/02/02 18:05:44;;;;;;;26.48;6.43;;;11.60;84.60;;;;;;5002508;28;20018;-81
2024/02/02 18:08:21;;;;;;;24.33;6.55;;;11.70;84.70;;;;;;4985607;28;20027;-80
2024/02/02 18:10:49;;;;;;;22.80;6.55;;;11.70;84.70;;;;;;4971634;28;20046;-81
2024/02/02 18:13:19;;;;;;;28.17;6.72;;;11.60;84.60;;;;;;4983437;28;20047;-81
2024/02/02 18:15:48;;;;;;;24.55;6.20;;;12.10;85.00;;;;;;4985492;28;20054;-81
2024/02/02 18:18:21;;;;;;;24.13;6.38;;;11.60;84.80;;;;;;4970241;28;20027;-80
2024/02/02 18:20:48;;;;;;;28.60;6.15;;;11.60;84.70;;;;;;4969720;28;20042;-81
2024/02/02 18:23:14;;;;;;;40.85;7.07;;;11.60;84.70;;;;;;4969486;28;20103;-81
2024/02/02 18:25:42;;;;;;;25.42;6.55;;;11.60;84.70;;;;;;4985217;28;20019;-81
2024/02/02 18:28:12;;;;;;;41.53;7.40;;;11.70;84.80;;;;;;4985787;28;20042;-81
2024/02/02 18:30:43;;;;;;;40.22;6.90;;;11.60;84.70;;;;;;5002189;28;20011;-81
2024/02/02 18:33:14;;;;;;;31.42;6.70;;;11.70;84.80;;;;;;4984890;28;20027;-81
2024/02/02 18:35:46;;;;;;;31.05;7.35;;;11.60;84.70;;;;;;5001897;28;20031;-83
2024/02/02 18:38:34;;;;;;;30.80;6.20;;;11.60;84.70;;;;;;4969985;28;20035;-81
2024/02/02 18:41:17;;;;;;;35.03;7.68;;;11.50;84.60;;;;;;4985273;28;20039;-81
2024/02/02 18:43:47;;;;;;;34.45;7.50;;;11.70;84.80;;;;;;4985010;28;20098;-81
2024/02/02 18:46:13;;;;;;;30.58;6.85;;;11.70;84.80;;;;;;5013980;23;20046;-81
2024/02/02 18:48:39;;;;;;;34.30;6.80;;;11.70;84.80;;;;;;4969117;28;20019;-81
2024/02/02 19:09:13;;;;;;;30.30;7.55;;;11.60;85.00;;;;;;5019707;23;20034;-81
2024/02/02 19:11:41;;;;;;;35.67;7.40;;;11.70;85.10;;;;;;5001140;28;20026;-81
2024/02/02 19:14:29;;;;;;;34.75;7.85;;;11.80;85.10;;;;;;4980919;28;20022;-82
2024/02/02 19:17:00;;;;;;;35.35;7.15;;;11.70;85.10;;;;;;4966321;28;20035;-82
2024/02/02 19:19:29;;;;;;;37.75;7.28;;;11.70;85.10;;;;;;4964879;28;20015;-82
2024/02/02 19:21:57;;;;;;;41.33;7.13;;;11.60;84.90;;;;;;4981706;28;20032;-80
2024/02/02 19:24:24;;;;;;;28.80;6.75;;;11.60;85.00;;;;;;4981318;28;20039;-81
2024/02/02 19:26:53;;;;;;;29.08;6.45;;;11.60;84.90;;;;;;4964376;28;20038;-82
2024/02/02 19:29:22;;;;;;;37.92;7.80;;;11.60;84.90;;;;;;5060878;23;20041;-81
2024/02/02 19:31:52;;;;;;;34.25;7.18;;;11.70;85.00;;;;;;5001066;28;20054;-81
2024/02/02 19:34:20;;;;;;;33.20;6.78;;;11.80;85.10;;;;;;5000927;28;20007;-81
2024/02/02 19:36:49;;;;;;;38.13;7.45;;;11.70;85.00;;;;;;4979908;28;20070;-80
2024/02/02 19:39:14;;;;;;;34.15;7.18;;;11.60;85.00;;;;;;4981588;28;20011;-81
2024/02/02 19:41:45;;;;;;;42.80;8.07;;;11.50;85.00;;;;;;4983435;28;20010;-80
2024/02/02 19:44:12;;;;;;;45.47;8.02;;;11.60;85.10;;;;;;4984290;28;20019;-82
2024/02/02 19:47:00;;;;;;;44.17;7.90;;;11.80;85.10;;;;;;5120578;23;20035;-80
2024/02/02 19:49:27;;;;;;;44.42;7.93;;;11.60;84.90;;;;;;4980410;28;20042;-80
2024/02/02 19:52:00;;;;;;;43.17;8.23;;;11.50;84.90;;;;;;4967116;28;20018;-81
2024/02/02 19:54:35;;;;;;;41.35;7.40;;;11.70;85.00;;;;;;4983404;28;20022;-81
2024/02/02 19:57:05;;;;;;;33.60;6.85;;;11.60;84.90;;;;;;5000092;28;20003;-81
2024/02/02 19:59:32;;;;;;;35.35;7.63;;;11.80;85.00;;;;;;4982940;28;20014;-81
2024/02/02 20:02:01;;;;;;;40.95;7.97;;;11.60;84.90;;;;;;4983090;28;20011;-81
2024/02/02 20:04:27;;;;;;;36.60;7.32;;;11.70;84.90;;;;;;4982756;28;20098;-80
2024/02/02 20:06:53;;;;;;;29.73;7.00;;;11.60;84.90;;;;;;4982758;28;20015;-80
2024/02/02 20:09:20;;;;;;;34.60;7.18;;;11.60;84.90;;;;;;4982984;28;20046;-81
2024/02/02 20:11:47;;;;;;;32.83;7.15;;;11.50;85.30;;;;;;4983121;28;20026;-81
2024/02/02 20:14:15;;;;;;;34.70;7.18;;;11.50;84.80;;;;;;4983243;28;20022;-80
2024/02/02 20:16:41;;;;;;;31.23;7.03;;;11.60;84.80;;;;;;4983148;28;20039;-81
2024/02/02 20:19:10;;;;;;;23.35;6.15;;;11.50;84.80;;;;;;4982563;28;20038;-81
2024/02/02 20:21:37;;;;;;;25.75;6.20;;;11.60;84.80;;;;;;4967344;28;20011;-81
2024/02/02 20:24:02;;;;;;;26.42;7.38;;;11.60;84.90;;;;;;4982052;28;20062;-81
2024/02/02 20:26:28;;;;;;;29.02;6.93;;;11.70;85.00;;;;;;4999691;28;20067;-82
2024/02/02 20:28:56;;;;;;;21.65;6.65;;;11.70;85.00;;;;;;4982880;28;20023;-81
2024/02/02 20:31:24;;;;;;;26.63;6.75;;;11.50;84.80;;;;;;4966867;28;20018;-80
2024/02/02 20:33:51;;;;;;;24.40;6.22;;;11.70;85.00;;;;;;4982305;28;20019;-81
2024/02/02 20:36:19;;;;;;;26.80;6.43;;;11.60;84.90;;;;;;4982598;28;20014;-79
